الصفحة الرئيسية
METAR-TAF:

METAR-TAF

مطار :

مطار باندارنيك الدولي

كولمبو, سريلانكا

دائرة عرض: 07-10N, خط طول: 079-53E, ارتفاع: 8 متر

مراقبة الطقس الحالي

تاريخ ووقت الإصدار 49 دقيقة قبل الساعة 20:10UTC
ريح 5 عقدة من الجنوب/الجنوب الشرقي
درجة الحرارة 26°درجة مئوية
الرطوبة 89%
ضغط 1010 hPa
الرؤية 10 كم أو أكثر
غيوم قليلة على ارتفاع 1800 قدم
غيوم مفككة على ارتفاع 3000 قدم

METAR: VCBI 252010Z 16005KT 9999 FEW018 BKN030 26/24 Q1010 NOSIG

زمن: 02:29 (20:59 UTC)

توقعات

تاريخ ووقت الإصدار 3ساعات و 59 دقيقة قبل الساعة 17:00UTC
التوقعات صالحة من25 الساعة 18 UTC إلى 26 الساعة 24 UTC
ريح 10 عقدة من الغرب/الجنوب الغربي
الرؤية 10 كم أو أكثر
غيوم متفرقة على ارتفاع 1800 قدم
أصبح
من 26 الساعة 00 UTC إلى 26 الساعة 02 UTC
ريح 12 عقدة من الغرب/الجنوب الغربي تتزايد حتى 22 عقدة
نظرية الاحتمالات 30% :
مؤقت
من 26 الساعة 00 UTC إلى 26 الساعة 08 UTC
الرؤية: 7000 متر
غيوم مفككة على ارتفاع 1600 قدم
غيوم قليلة على ارتفاع 1800 قدم, مزنة ركامية.

TAF: VCBI 251700Z 2518/2624 24010KT 9999 SCT018 TX31/2607Z TN26/2600Z BECMG 2600/2602 24012G22KT PROB30 TEMPO 2600/2608 7000 -TSRA/SHRA BKN016 FEW018CB

أرصاد الطقس والتوقعات من أكثر من 4000 مطار (تقارير الطقس للمطار METAR والتنبؤ بالطقس بالمطارTAF).

المحطات المتاحة هي النقط الصفراء والحمراء على الخريطة.

حرك المؤشر فوق النقطة لمعرفة اسم المحطة.

ثم انقر لمعرفة أرصاد وتوقعات الطقس.

لتغيير الخارطة: اضغط على الأزرار الخضراء مع رمز الصليب الأسود للتكبير. على الزر الأخضر مع شرطة للتصغير، أو على الأسهم الخضراء للخرائط المجاورة.


METAR-TAF: